Time;durP1;ratioP1;P1;durP2;ratioP2;P2;SDS_P1;SDS_P2;PMS_P1;PMS_P2;Temp;Humidity;BMP_temperature;BMP_pressure;BME280_temperature;BME280_humidity;BME280_pressure;Samples;Min_cycle;Max_cycle;Signal;HPM_P1;HPM_P2
2020/12/28 00:01:36;;;;;;;11.23;6.43;;;3.50;99.90;;;;;;5094784;28;20032;-77
2020/12/28 00:04:02;;;;;;;12.23;6.28;;;3.50;99.90;;;;;;5094963;28;20089;-74
2020/12/28 00:06:28;;;;;;;10.43;5.85;;;3.50;99.90;;;;;;5095821;28;20019;-75
2020/12/28 00:08:53;;;;;;;9.82;5.13;;;3.60;99.90;;;;;;5094697;28;20032;-78
2020/12/28 00:11:19;;;;;;;10.65;5.85;;;3.50;99.90;;;;;;5095527;28;20028;-74
2020/12/28 00:13:46;;;;;;;7.38;5.03;;;3.60;99.90;;;;;;5096684;28;20093;-74
2020/12/28 00:16:15;;;;;;;9.45;5.03;;;3.60;99.90;;;;;;5100000;28;20091;-76
2020/12/28 00:18:42;;;;;;;9.35;4.80;;;3.60;99.90;;;;;;5098080;28;20484;-76
2020/12/28 00:21:08;;;;;;;9.75;4.55;;;3.60;99.90;;;;;;5091173;28;20025;-79
2020/12/28 00:23:35;;;;;;;9.18;5.60;;;3.60;99.90;;;;;;5069383;28;20081;-81
2020/12/28 00:26:01;;;;;;;9.50;5.55;;;3.60;99.90;;;;;;5077049;28;20020;-80
2020/12/28 00:28:27;;;;;;;10.32;4.90;;;3.60;99.90;;;;;;5076980;28;20466;-76
2020/12/28 00:30:53;;;;;;;9.88;4.70;;;3.60;99.90;;;;;;5093984;28;20051;-81
2020/12/28 00:33:19;;;;;;;11.23;5.55;;;3.70;99.90;;;;;;5069206;28;20033;-77
2020/12/28 00:35:45;;;;;;;17.88;7.07;;;3.70;99.90;;;;;;5074897;28;20107;-75
2020/12/28 00:38:10;;;;;;;10.02;5.05;;;3.70;99.90;;;;;;5093640;28;20054;-77
2020/12/28 00:40:36;;;;;;;13.20;5.88;;;3.70;99.90;;;;;;5094680;28;20032;-75
2020/12/28 00:43:02;;;;;;;18.80;6.07;;;3.70;99.90;;;;;;5080225;28;20067;-76
2020/12/28 00:45:28;;;;;;;14.77;6.03;;;3.70;99.90;;;;;;5093288;28;20408;-84
2020/12/28 00:47:53;;;;;;;20.90;6.82;;;3.70;99.90;;;;;;5095155;28;20413;-77
2020/12/28 00:50:19;;;;;;;21.48;8.05;;;3.70;99.90;;;;;;5094561;28;20393;-76
2020/12/28 00:52:45;;;;;;;21.50;9.35;;;3.70;99.90;;;;;;5091900;28;20028;-78
2020/12/28 00:55:11;;;;;;;21.40;7.88;;;3.70;99.90;;;;;;5075722;28;20058;-75
2020/12/28 00:57:36;;;;;;;14.77;7.45;;;3.70;99.90;;;;;;5094081;28;20389;-76
2020/12/28 01:00:04;;;;;;;20.45;6.95;;;3.70;99.90;;;;;;5075873;28;20032;-80
2020/12/28 01:02:30;;;;;;;11.25;5.47;;;3.70;99.90;;;;;;5080280;28;20393;-75
2020/12/28 01:04:56;;;;;;;13.10;4.85;;;3.70;99.90;;;;;;5094073;28;20024;-77
2020/12/28 01:07:21;;;;;;;9.45;4.30;;;3.70;99.90;;;;;;5093542;28;20024;-76
2020/12/28 01:09:47;;;;;;;13.25;5.60;;;3.70;99.90;;;;;;5076253;28;20027;-76
2020/12/28 01:12:13;;;;;;;9.98;5.00;;;3.80;99.90;;;;;;5094158;28;20039;-77
2020/12/28 01:14:38;;;;;;;11.52;5.63;;;3.90;99.90;;;;;;5093752;28;20032;-74
2020/12/28 01:17:04;;;;;;;14.75;5.30;;;3.80;99.90;;;;;;5095400;28;20020;-79
2020/12/28 01:19:30;;;;;;;12.25;6.35;;;3.90;99.90;;;;;;5096257;28;20079;-76
2020/12/28 01:22:00;;;;;;;9.13;4.63;;;4.00;99.90;;;;;;5093447;28;20588;-75
2020/12/28 01:24:26;;;;;;;12.43;6.68;;;4.10;99.90;;;;;;5095819;28;20099;-75
2020/12/28 01:26:52;;;;;;;17.38;7.93;;;;;;;;;;5097440;28;20048;-78
2020/12/28 01:29:18;;;;;;;12.90;6.28;;;;;;;;;;5094001;28;20462;-78
2020/12/28 01:31:44;;;;;;;24.50;12.32;;;;;;;;;;5082599;28;20031;-81
2020/12/28 01:34:11;;;;;;;21.80;11.48;;;;;;;;;;5075419;28;20032;-76
2020/12/28 01:36:37;;;;;;;27.15;12.88;;;;;;;;;;5093305;28;20020;-77
2020/12/28 01:39:03;;;;;;;26.50;11.15;;;4.80;99.90;;;;;;5094368;28;20093;-76
2020/12/28 01:41:29;;;;;;;24.42;10.15;;;4.70;99.90;;;;;;5093974;28;20081;-76
2020/12/28 01:43:55;;;;;;;18.33;7.88;;;4.70;99.90;;;;;;5093066;28;20028;-78
2020/12/28 01:46:23;;;;;;;15.95;7.18;;;4.60;99.90;;;;;;5093307;28;20023;-75
2020/12/28 01:48:48;;;;;;;14.40;6.15;;;4.50;99.90;;;;;;5083904;28;20074;-78
2020/12/28 01:51:14;;;;;;;8.85;5.05;;;4.50;99.90;;;;;;5069211;28;20114;-77
2020/12/28 01:53:41;;;;;;;11.18;4.60;;;4.50;99.90;;;;;;5077350;28;20039;-78
2020/12/28 01:56:07;;;;;;;14.77;5.45;;;4.50;99.90;;;;;;5082745;28;20017;-78
2020/12/28 01:58:33;;;;;;;11.82;6.55;;;4.50;99.90;;;;;;5059280;28;20379;-78
2020/12/28 02:00:59;;;;;;;16.10;7.43;;;4.40;99.90;;;;;;5080930;28;20382;-78
2020/12/28 02:03:26;;;;;;;11.02;6.22;;;4.40;99.90;;;;;;5093663;28;20035;-79
2020/12/28 02:05:52;;;;;;;9.50;6.57;;;4.40;99.90;;;;;;5100823;28;20024;-75
2020/12/28 02:08:18;;;;;;;11.93;6.18;;;4.40;99.90;;;;;;5113294;28;20083;-79
2020/12/28 02:10:44;;;;;;;9.65;6.90;;;4.40;99.90;;;;;;5106581;28;20031;-77
2020/12/28 02:13:10;;;;;;;16.08;8.43;;;4.40;99.90;;;;;;5092765;28;20040;-77
2020/12/28 02:15:36;;;;;;;20.38;9.00;;;4.40;99.90;;;;;;5092166;28;20032;-77
2020/12/28 02:18:03;;;;;;;18.80;7.00;;;4.40;99.90;;;;;;5091660;28;20031;-79
2020/12/28 02:20:28;;;;;;;13.48;7.03;;;4.30;99.90;;;;;;5071403;28;20031;-77
2020/12/28 02:22:54;;;;;;;21.15;6.63;;;4.40;99.90;;;;;;5091756;28;20024;-75
2020/12/28 02:25:20;;;;;;;12.43;6.45;;;4.40;99.90;;;;;;5073751;28;20040;-77
2020/12/28 02:27:45;;;;;;;17.73;7.75;;;4.50;99.90;;;;;;5092389;28;20024;-80
2020/12/28 02:30:12;;;;;;;35.38;9.57;;;4.60;99.90;;;;;;5073751;28;20152;-79
2020/12/28 02:32:38;;;;;;;15.93;8.70;;;4.60;99.90;;;;;;5092398;28;20043;-79
2020/12/28 02:35:05;;;;;;;18.65;6.78;;;4.70;99.90;;;;;;5092214;28;20020;-78
2020/12/28 02:37:31;;;;;;;10.45;4.82;;;4.80;99.90;;;;;;5071074;28;20028;-78
2020/12/28 02:39:56;;;;;;;11.27;4.60;;;4.80;99.90;;;;;;5074442;28;20027;-79
2020/12/28 02:42:22;;;;;;;6.80;4.47;;;4.80;99.90;;;;;;5092676;28;20028;-78
2020/12/28 02:44:48;;;;;;;9.35;4.53;;;4.80;99.90;;;;;;5091708;28;20385;-76
2020/12/28 02:47:14;;;;;;;12.02;5.25;;;4.90;99.90;;;;;;5092645;28;20054;-78
2020/12/28 02:49:40;;;;;;;9.73;4.80;;;4.90;99.90;;;;;;5092375;28;20021;-76
2020/12/28 02:52:06;;;;;;;10.23;5.00;;;5.00;99.90;;;;;;5092079;28;20516;-80
2020/12/28 02:54:32;;;;;;;8.43;3.90;;;;;;;;;;5092177;28;20108;-76
2020/12/28 02:57:00;;;;;;;15.05;6.03;;;;;;;;;;5091565;28;20008;-76
2020/12/28 02:59:28;;;;;;;10.50;4.88;;;;;;;;;;5091381;28;20586;-81
2020/12/28 03:01:55;;;;;;;7.70;4.03;;;;;;;;;;5093189;28;20424;-77
2020/12/28 03:04:23;;;;;;;8.85;4.32;;;;;;;;;;5093037;28;20025;-75
2020/12/28 03:06:50;;;;;;;12.95;4.63;;;;;;;;;;5093036;28;20107;-75
2020/12/28 03:09:17;;;;;;;9.80;3.88;;;;;;;;;;5069280;28;20020;-73
2020/12/28 03:11:46;;;;;;;7.00;4.20;;;;;;;;;;5092979;28;20063;-75
2020/12/28 03:14:12;;;;;;;9.32;4.32;;;;;;;;;;5092886;28;20470;-78
2020/12/28 03:16:38;;;;;;;10.00;4.70;;;;;;;;;;5092837;28;20030;-77
2020/12/28 03:19:04;;;;;;;7.93;4.60;;;;;;;;;;5092570;28;20027;-76
2020/12/28 03:21:30;;;;;;;6.15;3.72;;;;;;;;;;5093013;28;20060;-77
2020/12/28 03:23:59;;;;;;;8.88;4.20;;;;;;;;;;5092990;28;20020;-79
2020/12/28 03:26:27;;;;;;;8.13;4.15;;;;;;;;;;5093254;28;20321;-78
2020/12/28 03:28:55;;;;;;;8.23;4.07;;;;;;;;;;5093562;28;20362;-77
2020/12/28 03:31:23;;;;;;;9.18;5.43;;;;;;;;;;5096474;28;20168;-76
2020/12/28 03:33:52;;;;;;;10.55;4.97;;;;;;;;;;5096753;28;20016;-76
2020/12/28 03:36:20;;;;;;;6.13;4.90;;;;;;;;;;5096914;28;20016;-76
2020/12/28 03:38:46;;;;;;;16.23;5.88;;;;;;;;;;5096288;28;20389;-75
2020/12/28 03:41:13;;;;;;;8.75;4.53;;;;;;;;;;5095822;28;20401;-76
2020/12/28 03:43:39;;;;;;;9.23;4.93;;;;;;;;;;5096505;28;20453;-78
2020/12/28 03:46:05;;;;;;;4.80;3.38;;;;;;;;;;5072482;28;20028;-75
2020/12/28 03:48:31;;;;;;;8.65;3.67;;;;;;;;;;5072597;28;20024;-75
2020/12/28 03:50:57;;;;;;;5.40;3.22;;;;;;;;;;5096361;28;20044;-77
2020/12/28 03:53:23;;;;;;;3.83;2.83;;;;;;;;;;5094740;28;20032;-75
2020/12/28 03:55:50;;;;;;;5.47;3.30;;;;;;;;;;5083239;28;20016;-75
2020/12/28 03:58:16;;;;;;;5.85;4.07;;;;;;;;;;5096503;28;20055;-79
2020/12/28 04:00:43;;;;;;;6.30;4.03;;;;;;;;;;5095829;28;20020;-75
2020/12/28 04:03:09;;;;;;;8.88;4.72;;;;;;;;;;5096412;28;20028;-75
2020/12/28 04:05:35;;;;;;;5.13;2.92;;;;;;;;;;5078047;28;20111;-76
2020/12/28 04:08:01;;;;;;;5.03;3.80;;;;;;;;;;5095578;28;20024;-78
2020/12/28 04:10:28;;;;;;;4.70;3.30;;;;;;;;;;5078069;28;20423;-77
2020/12/28 04:12:54;;;;;;;5.93;3.33;;;;;;;;;;5096448;28;20020;-77
2020/12/28 04:15:20;;;;;;;5.70;3.47;;;;;;;;;;5096113;28;20078;-78
2020/12/28 04:17:46;;;;;;;5.15;3.33;;;;;;;;;;5084244;28;20021;-75
2020/12/28 04:20:12;;;;;;;6.50;3.92;;;;;;;;;;5099654;28;20024;-75
2020/12/28 04:22:40;;;;;;;7.30;3.95;;;;;;;;;;5101028;28;20028;-75
2020/12/28 04:25:06;;;;;;;4.68;3.33;;;;;;;;;;5102940;28;20152;-75
2020/12/28 04:27:32;;;;;;;4.70;2.88;;;;;;;;;;5103103;28;20103;-77
2020/12/28 04:29:58;;;;;;;5.35;3.65;;;;;;;;;;5095815;28;20115;-75
2020/12/28 04:32:24;;;;;;;6.80;3.90;;;;;;;;;;5095758;28;20020;-76
2020/12/28 04:34:50;;;;;;;5.00;3.03;;;;;;;;;;5095622;28;20073;-75
2020/12/28 04:37:17;;;;;;;4.82;3.20;;;;;;;;;;5095234;28;20027;-76
2020/12/28 04:39:43;;;;;;;4.95;3.30;;;;;;;;;;5094905;28;20120;-76
2020/12/28 04:42:09;;;;;;;7.65;4.38;;;;;;;;;;5085191;28;20035;-77
2020/12/28 04:44:36;;;;;;;5.63;3.85;;;;;;;;;;5077123;28;20024;-76
2020/12/28 04:47:02;;;;;;;7.53;3.88;;;;;;;;;;5095537;28;20020;-75
2020/12/28 04:49:30;;;;;;;6.72;3.97;;;;;;;;;;5095655;28;20094;-77
2020/12/28 04:51:57;;;;;;;6.10;3.58;;;;;;;;;;5087994;28;20020;-77
2020/12/28 04:54:24;;;;;;;5.75;4.10;;;;;;;;;;5079244;28;20039;-79
2020/12/28 04:56:52;;;;;;;4.57;2.83;;;7.10;99.90;;;;;;5088620;28;20066;-76
2020/12/28 04:59:20;;;;;;;7.22;4.35;;;;;;;;;;5082861;28;20020;-77
2020/12/28 05:01:54;;;;;;;9.35;4.22;;;;;;;;;;5094975;28;20016;-74
2020/12/28 05:04:24;;;;;;;4.43;3.25;;;;;;;;;;5095052;28;20047;-74
2020/12/28 05:06:58;;;;;;;7.65;3.47;;;;;;;;;;5102333;28;20083;-75
2020/12/28 05:09:24;;;;;;;6.75;3.67;;;;;;;;;;5104385;28;20084;-75
2020/12/28 05:12:10;;;;;;;8.98;4.60;;;;;;;;;;5105034;28;20024;-76
2020/12/28 05:14:36;;;;;;;6.45;3.55;;;;;;;;;;5083049;28;20027;-76
2020/12/28 05:17:03;;;;;;;8.50;5.25;;;;;;;;;;5094904;28;20024;-77
2020/12/28 05:19:30;;;;;;;11.13;5.18;;;;;;;;;;5080212;28;20031;-77
2020/12/28 05:21:59;;;;;;;6.63;4.75;;;;;;;;;;5094482;28;20103;-78
2020/12/28 05:24:26;;;;;;;7.45;4.80;;;;;;;;;;5094493;28;20059;-78
2020/12/28 05:26:53;;;;;;;9.00;5.57;;;;;;;;;;5094076;28;20062;-76
2020/12/28 05:29:20;;;;;;;6.07;3.83;;;;;;;;;;5073046;28;20017;-78
2020/12/28 05:31:48;;;;;;;6.03;3.80;;;;;;;;;;5083176;28;20523;-76
2020/12/28 05:34:24;;;;;;;6.68;3.90;;;;;;;;;;5094455;28;20031;-76
2020/12/28 05:36:52;;;;;;;7.32;4.47;;;;;;;;;;5094328;28;20020;-76
2020/12/28 05:39:24;;;;;;;7.22;4.35;;;;;;;;;;5092665;28;20031;-76
2020/12/28 05:41:54;;;;;;;5.10;3.72;;;;;;;;;;5082013;28;20026;-76
2020/12/28 05:44:23;;;;;;;6.50;3.83;;;;;;;;;;5094541;28;20024;-76
2020/12/28 05:47:00;;;;;;;7.40;4.20;;;;;;;;;;5093742;28;20035;-73
2020/12/28 05:49:32;;;;;;;5.57;3.50;;;;;;;;;;5094255;28;20028;-79
2020/12/28 05:51:58;;;;;;;8.23;4.47;;;7.40;99.90;;;;;;5085904;28;20072;-78
2020/12/28 05:54:27;;;;;;;6.28;4.53;;;7.50;99.90;;;;;;5069118;28;20028;-78
2020/12/28 05:56:54;;;;;;;7.55;4.55;;;7.50;99.90;;;;;;5075594;28;20134;-79
2020/12/28 05:59:21;;;;;;;6.03;3.95;;;7.50;99.90;;;;;;5093977;28;20462;-77
2020/12/28 06:01:48;;;;;;;8.18;3.90;;;;;;;;;;5075453;28;20024;-79
2020/12/28 06:04:15;;;;;;;5.93;3.80;;;7.50;99.90;;;;;;5094096;28;20032;-78
2020/12/28 06:06:42;;;;;;;5.82;3.70;;;7.50;99.90;;;;;;5075707;28;20028;-79
2020/12/28 06:09:09;;;;;;;6.18;3.88;;;;;;;;;;5093866;28;20016;-79
2020/12/28 06:11:36;;;;;;;6.53;3.95;;;;;;;;;;5093786;28;20485;-79
2020/12/28 06:14:33;;;;;;;10.45;4.38;;;;;;;;;;5090369;28;20036;-79
2020/12/28 06:17:04;;;;;;;7.75;3.90;;;;;;;;;;5019856;28;20064;-81
2020/12/28 06:19:31;;;;;;;5.35;3.65;;;;;;;;;;5001502;28;20020;-79
2020/12/28 06:21:58;;;;;;;8.15;4.70;;;;;;;;;;5035948;28;20034;-79
2020/12/28 06:24:30;;;;;;;5.78;4.22;;;;;;;;;;5037047;28;20039;-78
2020/12/28 06:27:02;;;;;;;6.53;4.32;;;;;;;;;;5021022;28;20048;-82
2020/12/28 06:29:29;;;;;;;8.73;4.43;;;;;;;;;;5013966;28;21249;-79
2020/12/28 06:31:58;;;;;;;14.98;6.07;;;;;;;;;;5031282;28;20030;-80
2020/12/28 06:34:27;;;;;;;12.38;6.40;;;;;;;;;;5031284;28;20536;-79
2020/12/28 06:37:01;;;;;;;16.55;6.45;;;;;;;;;;5030989;28;20029;-77
2020/12/28 06:39:28;;;;;;;12.13;6.15;;;;;;;;;;5014387;28;20057;-77
2020/12/28 06:41:55;;;;;;;12.95;6.32;;;;;;;;;;5030749;28;20028;-76
2020/12/28 06:44:28;;;;;;;15.80;7.38;;;;;;;;;;5030879;28;20034;-76
2020/12/28 06:46:55;;;;;;;12.82;7.18;;;;;;;;;;5030927;28;20038;-78
2020/12/28 06:49:22;;;;;;;15.40;7.72;;;;;;;;;;5030716;28;20029;-77
2020/12/28 06:51:50;;;;;;;19.92;8.85;;;;;;;;;;5030986;28;20028;-75
2020/12/28 06:54:23;;;;;;;14.52;6.65;;;;;;;;;;5045520;28;20486;-76
2020/12/28 06:56:51;;;;;;;5.80;4.13;;;;;;;;;;5070236;28;20174;-77
2020/12/28 06:59:17;;;;;;;8.18;4.90;;;;;;;;;;5093427;28;20475;-76
2020/12/28 07:01:45;;;;;;;8.90;4.43;;;;;;;;;;5092847;28;20027;-74
2020/12/28 07:04:13;;;;;;;10.68;5.35;;;;;;;;;;5089456;28;20084;-77
2020/12/28 07:06:41;;;;;;;11.23;4.78;;;;;;;;;;5097087;28;20478;-78
2020/12/28 07:09:08;;;;;;;9.25;4.32;;;;;;;;;;5097238;28;20050;-74
2020/12/28 07:11:34;;;;;;;12.85;5.80;;;;;;;;;;5096935;28;20042;-74
2020/12/28 07:14:04;;;;;;;8.90;4.90;;;;;;;;;;5097291;28;20035;-75
2020/12/28 07:16:30;;;;;;;8.60;4.32;;;;;;;;;;5096529;28;20032;-72
2020/12/28 07:19:01;;;;;;;7.45;4.32;;;;;;;;;;5095454;28;20039;-73
2020/12/28 07:21:27;;;;;;;7.93;4.13;;;;;;;;;;5069090;28;20366;-74
2020/12/28 07:23:53;;;;;;;7.50;3.67;;;;;;;;;;5097073;28;20051;-74
2020/12/28 07:26:20;;;;;;;6.25;4.55;;;;;;;;;;5074639;28;20027;-75
2020/12/28 07:28:47;;;;;;;6.03;4.10;;;;;;;;;;5096575;28;20012;-75
2020/12/28 07:31:13;;;;;;;8.13;3.88;;;;;;;;;;5095653;28;20071;-78
2020/12/28 07:33:45;;;;;;;7.80;3.80;;;;;;;;;;5093836;28;20447;-77
2020/12/28 07:36:13;;;;;;;6.37;4.23;;;;;;;;;;5076524;28;20028;-77
2020/12/28 07:38:41;;;;;;;8.00;4.65;;;;;;;;;;5094336;28;20715;-74
2020/12/28 07:41:07;;;;;;;6.43;4.72;;;;;;;;;;5094019;28;20703;-74
2020/12/28 07:43:33;;;;;;;7.00;4.47;;;;;;;;;;5094214;28;20024;-73
2020/12/28 07:46:08;;;;;;;7.20;4.28;;;;;;;;;;5093938;28;20080;-74
2020/12/28 07:48:36;;;;;;;6.57;4.57;;;;;;;;;;5092153;28;20028;-77
2020/12/28 07:51:06;;;;;;;7.60;4.40;;;;;;;;;;5094380;28;20027;-74
2020/12/28 07:53:36;;;;;;;7.60;4.65;;;;;;;;;;5068075;28;20381;-76
2020/12/28 07:56:04;;;;;;;8.00;4.65;;;;;;;;;;5092236;28;20095;-75
2020/12/28 07:58:42;;;;;;;7.82;4.65;;;;;;;;;;5093279;28;20022;-77
2020/12/28 08:01:15;;;;;;;6.82;4.68;;;;;;;;;;5093358;28;20030;-76
2020/12/28 08:03:45;;;;;;;8.07;3.78;;;;;;;;;;5092648;28;20469;-77
2020/12/28 08:06:14;;;;;;;7.70;4.18;;;;;;;;;;5092281;28;20093;-76
2020/12/28 08:08:40;;;;;;;5.00;3.20;;;;;;;;;;5092244;28;20509;-76
2020/12/28 08:11:06;;;;;;;4.68;3.47;;;;;;;;;;5102079;28;20176;-76
2020/12/28 08:13:41;;;;;;;4.78;3.45;;;;;;;;;;5109580;28;20375;-75
2020/12/28 08:16:15;;;;;;;6.05;3.30;;;;;;;;;;5098053;28;20482;-72
2020/12/28 08:18:55;;;;;;;4.78;3.45;;;;;;;;;;5091830;28;20055;-73
2020/12/28 08:21:24;;;;;;;6.32;3.50;;;;;;;;;;5070228;28;20027;-70
2020/12/28 08:23:50;;;;;;;5.13;3.50;;;;;;;;;;5092342;28;20024;-72
2020/12/28 08:26:17;;;;;;;5.32;4.05;;;;;;;;;;5089176;28;20052;-71
2020/12/28 08:28:57;;;;;;;5.95;3.30;;;;;;;;;;5064532;28;20082;-75
2020/12/28 08:31:26;;;;;;;6.75;4.53;;;;;;;;;;5093819;28;20055;-74
2020/12/28 08:34:09;;;;;;;6.72;4.05;;;;;;;;;;5091619;28;20016;-73
2020/12/28 08:36:36;;;;;;;6.68;3.42;;;;;;;;;;5076763;28;20032;-74
2020/12/28 08:39:12;;;;;;;6.70;4.15;;;;;;;;;;5092997;28;20076;-77
2020/12/28 08:41:39;;;;;;;6.15;4.10;;;;;;;;;;5091136;28;20544;-77
2020/12/28 08:44:05;;;;;;;12.43;5.70;;;;;;;;;;5088832;28;20484;-75
2020/12/28 08:46:31;;;;;;;7.70;5.25;;;;;;;;;;5089685;28;20426;-76
2020/12/28 08:48:57;;;;;;;13.05;6.72;;;;;;;;;;5094585;28;20412;-77
2020/12/28 08:51:23;;;;;;;11.23;6.20;;;;;;;;;;5094753;28;20095;-74
2020/12/28 08:53:51;;;;;;;8.18;5.03;;;;;;;;;;5089969;28;20021;-75
2020/12/28 08:56:17;;;;;;;9.65;5.38;;;;;;;;;;5090482;28;20028;-73
2020/12/28 08:58:44;;;;;;;6.78;5.18;;;;;;;;;;5094122;28;20046;-75
2020/12/28 09:01:10;;;;;;;8.88;5.35;;;;;;;;;;5076333;28;20024;-73
2020/12/28 09:03:37;;;;;;;11.27;5.82;;;;;;;;;;5093634;28;20469;-74
2020/12/28 09:06:07;;;;;;;8.25;5.03;;;;;;;;;;5093751;28;20516;-74
2020/12/28 09:08:33;;;;;;;12.05;6.30;;;;;;;;;;5093613;28;20044;-75
2020/12/28 09:10:59;;;;;;;20.65;9.57;;;;;;;;;;5091511;28;20020;-71
2020/12/28 09:13:26;;;;;;;12.13;7.03;;;;;;;;;;5094022;28;20518;-72
2020/12/28 09:15:52;;;;;;;13.55;8.93;;;;;;;;;;5093277;28;20028;-72
2020/12/28 09:18:18;;;;;;;13.50;8.10;;;;;;;;;;5093477;28;20012;-72
2020/12/28 09:20:45;;;;;;;22.35;8.75;;;;;;;;;;5075795;28;20030;-72
2020/12/28 09:23:11;;;;;;;12.35;7.75;;;;;;;;;;5092831;28;20394;-75
2020/12/28 09:25:37;;;;;;;10.25;5.75;;;;;;;;;;5074773;28;20024;-74
2020/12/28 09:28:03;;;;;;;14.73;7.22;;;;;;;;;;5092974;28;20232;-74
2020/12/28 09:30:29;;;;;;;14.57;6.60;;;;;;;;;;5092033;28;20079;-74
2020/12/28 09:32:55;;;;;;;11.95;7.15;;;;;;;;;;5092504;28;20024;-78
2020/12/28 09:35:21;;;;;;;12.95;7.43;;;;;;;;;;5095631;28;20023;-75
2020/12/28 09:37:47;;;;;;;9.02;5.78;;;;;;;;;;5093118;28;20031;-74
2020/12/28 09:40:13;;;;;;;7.88;5.50;;;;;;;;;;5094100;28;20036;-74
2020/12/28 09:42:40;;;;;;;8.65;3.58;;;;;;;;;;5093287;28;20111;-73
2020/12/28 09:45:36;;;;;;;5.72;3.92;;;;;;;;;;5093919;28;20028;-73
2020/12/28 09:47:52;;;;;;;7.22;4.43;;;;;;;;;;5091140;28;20549;-73
2020/12/28 09:50:18;;;;;;;15.77;6.05;;;;;;;;;;5093320;28;20028;-74
2020/12/28 09:52:44;;;;;;;10.10;5.30;;;;;;;;;;5092058;28;20028;-77
2020/12/28 09:55:10;;;;;;;18.25;10.18;;;;;;;;;;5078940;28;20024;-74
2020/12/28 09:57:36;;;;;;;10.20;5.45;;;;;;;;;;5093633;28;20028;-72
2020/12/28 10:00:03;;;;;;;11.05;6.03;;;;;;;;;;5093481;28;20024;-72
2020/12/28 10:02:29;;;;;;;9.38;5.38;;;;;;;;;;5079557;28;20514;-73
2020/12/28 10:04:55;;;;;;;9.10;4.85;;;;;;;;;;5092986;28;20756;-75
2020/12/28 10:07:21;;;;;;;10.60;5.97;;;;;;;;;;5075349;28;20458;-74
2020/12/28 10:09:47;;;;;;;8.45;5.47;;;;;;;;;;5093660;28;20471;-76
2020/12/28 10:12:13;;;;;;;5.72;4.65;;;;;;;;;;5093543;28;20038;-74
2020/12/28 10:14:39;;;;;;;15.13;5.38;;;;;;;;;;5093334;28;20036;-75
2020/12/28 10:17:05;;;;;;;13.32;5.50;;;;;;;;;;5090208;28;20365;-75
2020/12/28 10:19:32;;;;;;;8.38;5.57;;;;;;;;;;5093205;28;20017;-74
2020/12/28 10:22:01;;;;;;;9.48;5.32;;;;;;;;;;5093196;28;20043;-74
2020/12/28 10:24:27;;;;;;;11.32;6.18;;;;;;;;;;5093016;28;20030;-75
2020/12/28 10:26:53;;;;;;;8.75;5.00;;;;;;;;;;5092997;28;20024;-76
2020/12/28 10:29:19;;;;;;;7.97;4.43;;;;;;;;;;5092877;28;20073;-74
2020/12/28 10:31:45;;;;;;;12.07;5.88;;;;;;;;;;5066302;28;20020;-74
2020/12/28 10:34:11;;;;;;;7.30;4.68;;;;;;;;;;5092826;28;20032;-75
2020/12/28 10:36:38;;;;;;;12.02;4.90;;;;;;;;;;5093266;28;20016;-76
2020/12/28 10:39:04;;;;;;;7.63;4.35;;;;;;;;;;5092595;28;20081;-74
2020/12/28 10:41:32;;;;;;;10.55;6.30;;;;;;;;;;5065834;28;20020;-72
2020/12/28 10:43:59;;;;;;;8.02;4.32;;;;;;;;;;5084285;28;20481;-73
2020/12/28 10:46:25;;;;;;;10.13;4.72;;;;;;;;;;5092400;28;20027;-73
2020/12/28 10:48:52;;;;;;;8.60;4.90;;;;;;;;;;5091541;28;20029;-73
2020/12/28 10:51:18;;;;;;;8.43;4.82;;;;;;;;;;5092562;28;20462;-73
2020/12/28 10:53:44;;;;;;;8.68;4.40;;;;;;;;;;5065571;28;20155;-73
2020/12/28 10:56:10;;;;;;;6.65;4.22;;;;;;;;;;5093284;28;20024;-72
2020/12/28 10:58:36;;;;;;;7.28;4.10;;;;;;;;;;5080283;28;20055;-73
2020/12/28 11:01:06;;;;;;;6.60;4.30;;;;;;;;;;5092793;28;20156;-74
2020/12/28 11:03:32;;;;;;;7.40;4.30;;;;;;;;;;5087080;28;20016;-73
2020/12/28 11:06:01;;;;;;;8.82;4.28;;;;;;;;;;5092806;28;20486;-73
2020/12/28 11:08:27;;;;;;;11.95;4.80;;;;;;;;;;5095773;28;20139;-73
2020/12/28 11:10:53;;;;;;;9.20;4.50;;;;;;;;;;5093828;28;20031;-76
2020/12/28 11:13:19;;;;;;;13.32;3.92;;;;;;;;;;5092788;28;20023;-76
2020/12/28 11:15:45;;;;;;;6.60;3.60;;;;;;;;;;5094866;28;20016;-74
2020/12/28 11:18:11;;;;;;;4.05;3.00;;;;;;;;;;5102488;28;20028;-72
2020/12/28 11:20:37;;;;;;;5.15;3.50;;;;;;;;;;5093828;28;20016;-75
2020/12/28 11:23:03;;;;;;;7.10;3.80;;;;;;;;;;5092505;28;20028;-74
2020/12/28 11:25:29;;;;;;;4.93;3.22;;;;;;;;;;5092982;28;20036;-74
2020/12/28 11:27:55;;;;;;;5.75;3.45;;;;;;;;;;5092216;28;20095;-72
2020/12/28 11:30:21;;;;;;;5.85;3.08;;;;;;;;;;5092182;28;20059;-74
2020/12/28 11:32:47;;;;;;;5.43;3.72;;;;;;;;;;5092783;28;20016;-73
2020/12/28 11:35:13;;;;;;;6.00;3.08;;;;;;;;;;5092626;28;20020;-76
2020/12/28 11:37:39;;;;;;;6.85;3.25;;;;;;;;;;5091954;28;20370;-73
2020/12/28 11:40:05;;;;;;;6.80;3.63;;;;;;;;;;5092366;28;20020;-75
2020/12/28 11:42:32;;;;;;;7.93;3.05;;;;;;;;;;5091794;28;20515;-75
2020/12/28 11:44:58;;;;;;;7.57;3.47;;;;;;;;;;5088832;28;20102;-72
2020/12/28 11:47:24;;;;;;;7.68;4.60;;;;;;;;;;5088947;28;20082;-74
2020/12/28 11:49:50;;;;;;;5.90;3.25;;;;;;;;;;5091958;28;20024;-71
2020/12/28 11:52:18;;;;;;;6.35;3.72;;;;;;;;;;5095769;28;20055;-73
2020/12/28 11:54:44;;;;;;;7.00;3.78;;;;;;;;;;5094053;28;20172;-73
2020/12/28 11:57:10;;;;;;;5.50;3.58;;;;;;;;;;5095407;28;20020;-74
2020/12/28 11:59:36;;;;;;;6.38;3.92;;;;;;;;;;5097326;28;20050;-73
2020/12/28 12:02:02;;;;;;;4.95;3.20;;;;;;;;;;5093804;28;20085;-73
2020/12/28 12:07:13;;;;;;;15.05;6.80;;;;;;;;;;5093805;28;20409;-74
2020/12/28 12:09:39;;;;;;;11.68;5.43;;;;;;;;;;5093230;28;20099;-77
2020/12/28 12:12:05;;;;;;;14.15;6.65;;;;;;;;;;5091668;28;20097;-72
2020/12/28 12:17:35;;;;;;;6.55;3.92;;;;;;;;;;5094121;28;20058;-74
2020/12/28 12:20:01;;;;;;;6.63;3.10;;;;;;;;;;5093532;28;20039;-74
2020/12/28 12:22:27;;;;;;;10.98;5.15;;;;;;;;;;5092484;28;20017;-78
2020/12/28 12:24:53;;;;;;;7.10;4.38;;;;;;;;;;5074254;28;20032;-76
2020/12/28 12:27:19;;;;;;;18.80;3.70;;;;;;;;;;5095114;28;20028;-76
2020/12/28 12:29:45;;;;;;;5.75;3.55;;;;;;;;;;5094156;28;20048;-74
2020/12/28 12:32:11;;;;;;;11.60;3.67;;;;;;;;;;5075385;28;20073;-74
2020/12/28 12:34:37;;;;;;;9.15;3.95;;;;;;;;;;5095689;28;20096;-75
2020/12/28 12:37:03;;;;;;;8.32;4.32;;;;;;;;;;5097266;28;20017;-74
2020/12/28 12:39:30;;;;;;;10.82;5.10;;;;;;;;;;5093316;28;20018;-75
2020/12/28 12:41:56;;;;;;;9.70;4.82;;;;;;;;;;5073550;28;20016;-75
2020/12/28 12:44:22;;;;;;;11.57;4.90;;;;;;;;;;5076180;28;20036;-75
2020/12/28 12:46:48;;;;;;;9.68;5.35;;;;;;;;;;5094846;28;20031;-71
2020/12/28 12:49:14;;;;;;;8.95;4.93;;;;;;;;;;5094935;28;20470;-71
2020/12/28 12:51:40;;;;;;;11.85;4.90;;;;;;;;;;5094869;28;20099;-71
2020/12/28 12:54:06;;;;;;;11.48;4.15;;;;;;;;;;5087788;28;20033;-72
2020/12/28 12:56:33;;;;;;;10.45;4.82;;;;;;;;;;5087685;28;20035;-71
2020/12/28 12:58:59;;;;;;;16.52;7.78;;;;;;;;;;5094680;28;20020;-69
2020/12/28 13:01:25;;;;;;;14.30;7.03;;;;;;;;;;5094343;28;20111;-71
2020/12/28 13:03:51;;;;;;;15.15;5.97;;;;;;;;;;5094144;28;20458;-70
2020/12/28 13:06:17;;;;;;;16.90;8.20;;;;;;;;;;5094608;28;20436;-71
2020/12/28 13:08:43;;;;;;;17.58;8.70;;;;;;;;;;5094263;28;20020;-71
2020/12/28 13:11:09;;;;;;;21.77;7.10;;;;;;;;;;5094469;28;20020;-71
2020/12/28 13:13:36;;;;;;;24.70;8.93;;;;;;;;;;5094026;28;20028;-72
2020/12/28 13:16:02;;;;;;;14.63;5.40;;;;;;;;;;5094178;28;20055;-72
2020/12/28 13:18:32;;;;;;;12.40;4.53;;;;;;;;;;5093281;28;20077;-74
2020/12/28 13:20:58;;;;;;;11.27;3.58;;;;;;;;;;5092751;28;20073;-74
2020/12/28 13:23:24;;;;;;;13.35;5.55;;;;;;;;;;5092509;28;20034;-72
2020/12/28 13:25:50;;;;;;;7.68;4.45;;;;;;;;;;5092322;28;20059;-73
2020/12/28 13:28:16;;;;;;;9.23;4.25;;;;;;;;;;5093087;28;20118;-73
2020/12/28 13:30:42;;;;;;;9.93;3.90;;;;;;;;;;5092478;28;20044;-72
2020/12/28 13:33:09;;;;;;;7.78;4.65;;;;;;;;;;5093044;28;20717;-75
2020/12/28 13:35:35;;;;;;;10.43;3.42;;;;;;;;;;5066745;28;20032;-74
2020/12/28 13:38:04;;;;;;;14.90;3.10;;;;;;;;;;5092652;28;20546;-72
2020/12/28 13:40:30;;;;;;;10.95;4.72;;;;;;;;;;5092946;28;20035;-73
2020/12/28 13:42:56;;;;;;;10.60;3.90;;;;;;;;;;5092784;28;20032;-75
2020/12/28 13:45:22;;;;;;;7.68;4.15;;;;;;;;;;5093017;28;20440;-74
2020/12/28 13:47:48;;;;;;;7.55;3.60;;;;;;;;;;5093906;28;20020;-73
2020/12/28 13:50:14;;;;;;;9.60;4.70;;;;;;;;;;5093479;28;20032;-73
2020/12/28 13:52:41;;;;;;;19.23;5.95;;;;;;;;;;5093938;28;20153;-74
2020/12/28 13:55:07;;;;;;;10.90;4.95;;;;;;;;;;5086927;28;20020;-75
2020/12/28 13:57:33;;;;;;;8.25;3.85;;;;;;;;;;5093419;28;20094;-73
2020/12/28 13:59:59;;;;;;;10.35;5.28;;;;;;;;;;5093488;28;20031;-76
2020/12/28 14:02:25;;;;;;;10.25;4.88;;;;;;;;;;5091031;28;20027;-74
2020/12/28 14:04:51;;;;;;;14.48;6.43;;;;;;;;;;5066935;28;20031;-73
2020/12/28 14:07:17;;;;;;;16.67;7.80;;;;;;;;;;5093286;28;20036;-73
2020/12/28 14:09:44;;;;;;;16.63;6.88;;;;;;;;;;5092763;28;20362;-75
2020/12/28 14:12:10;;;;;;;13.98;7.45;;;;;;;;;;5091175;28;20024;-73
2020/12/28 14:14:36;;;;;;;10.27;5.18;;;;;;;;;;5092120;28;20034;-75
2020/12/28 14:17:02;;;;;;;8.75;4.43;;;;;;;;;;5090849;28;20027;-75
2020/12/28 14:19:28;;;;;;;7.13;4.50;;;;;;;;;;5102308;28;20020;-74